createdAt,value
2019-01-10T00:02:08.420Z,66
2019-01-10T00:07:05.335Z,65.9
2019-01-10T00:12:01.967Z,66.7
2019-01-10T00:16:58.713Z,66.6
2019-01-10T00:21:55.245Z,66.7
2019-01-10T00:26:52.131Z,66.7
2019-01-10T00:31:48.618Z,66.8
2019-01-10T00:36:45.382Z,66.8
2019-01-10T00:41:41.819Z,66.5
2019-01-10T00:46:38.502Z,66.2
2019-01-10T00:51:35.352Z,66.4
2019-01-10T00:56:32.400Z,66.3
2019-01-10T01:01:29.563Z,66.2
2019-01-10T01:06:26.046Z,66.4
2019-01-10T01:11:22.693Z,66.3
2019-01-10T01:16:19.510Z,66.3
2019-01-10T01:21:16.289Z,65.9
2019-01-10T01:26:13.127Z,66.2
2019-01-10T01:31:09.754Z,66
2019-01-10T01:36:06.569Z,66.4
2019-01-10T01:41:03.291Z,66
2019-01-10T01:45:59.968Z,66.5
2019-01-10T01:50:56.614Z,66.5
2019-01-10T01:55:53.661Z,66
2019-01-10T02:00:50.332Z,65.6
2019-01-10T02:05:47.534Z,66
2019-01-10T02:10:44.153Z,66
2019-01-10T02:15:40.914Z,66.3
2019-01-10T02:20:37.820Z,65.7
2019-01-10T02:25:34.755Z,65.8
2019-01-10T02:30:41.599Z,66.3
2019-01-10T02:35:28.309Z,66.4
2019-01-10T02:40:25.141Z,66.5
2019-01-10T02:45:22.022Z,66.3
2019-01-10T02:50:18.901Z,66.5
2019-01-10T02:55:15.657Z,66
2019-01-10T03:00:12.096Z,66.2
2019-01-10T03:05:08.858Z,66.5
2019-01-10T03:10:06.219Z,66.5
2019-01-10T03:15:02.631Z,67
2019-01-10T03:19:59.415Z,66.8
2019-01-10T03:24:56.185Z,67.4
2019-01-10T03:29:52.836Z,66.9
2019-01-10T03:34:49.668Z,67
2019-01-10T03:39:46.349Z,66.8
2019-01-10T03:44:43.178Z,67.1
2019-01-10T03:49:40.019Z,66.9
2019-01-10T03:54:36.986Z,67
2019-01-10T03:59:33.577Z,67.5
2019-01-10T04:04:30.288Z,67.6
2019-01-10T04:09:26.800Z,67.4
2019-01-10T04:14:23.130Z,67.9
2019-01-10T04:19:19.579Z,67.7
2019-01-10T04:24:16.591Z,67.5
2019-01-10T04:29:13.417Z,67.6
2019-01-10T04:34:10.036Z,67.7
2019-01-10T04:39:07.102Z,68.1
2019-01-10T04:44:07.100Z,68.4
2019-01-10T04:49:00.230Z,68.4
2019-01-10T04:53:56.574Z,68.4
2019-01-10T04:58:52.823Z,68.7
2019-01-10T05:03:49.454Z,68.3
2019-01-10T05:08:46.229Z,67.9
2019-01-10T05:13:42.944Z,68.3
2019-01-10T05:18:39.782Z,67.5
2019-01-10T05:23:36.520Z,67.7
2019-01-10T05:28:33.187Z,67.5
2019-01-10T05:33:29.963Z,67.7
2019-01-10T05:38:26.893Z,67.5
2019-01-10T05:43:23.561Z,67.6
2019-01-10T05:48:20.246Z,66.8
2019-01-10T05:53:17.083Z,66.6
2019-01-10T05:58:13.572Z,66.2
2019-01-10T06:03:10.366Z,66.4
2019-01-10T06:08:06.434Z,66.1
2019-01-10T06:13:03.188Z,65.9
2019-01-10T06:18:00.066Z,66
2019-01-10T06:22:57.003Z,66.3
2019-01-10T06:27:53.793Z,66.1
2019-01-10T06:32:50.535Z,66.2
2019-01-10T06:37:47.100Z,66.3
2019-01-10T06:42:43.821Z,66
2019-01-10T06:47:40.673Z,66.3
2019-01-10T06:52:37.504Z,66.4
2019-01-10T06:57:34.370Z,66.9
2019-01-10T07:02:31.326Z,67.4
2019-01-10T07:07:27.936Z,66.9
2019-01-10T07:12:24.670Z,67.8
2019-01-10T07:17:21.504Z,67.4
2019-01-10T07:22:18.203Z,67.6
2019-01-10T07:27:14.967Z,67.4
2019-01-10T07:32:11.779Z,68.1
2019-01-10T07:37:12.778Z,68.1
2019-01-10T07:42:04.904Z,67.7
2019-01-10T07:47:01.519Z,67.6
2019-01-10T07:51:58.202Z,67.6
2019-01-10T07:56:54.831Z,67.2
2019-01-10T08:01:51.492Z,67.4
2019-01-10T08:06:48.006Z,68
2019-01-10T08:11:44.703Z,67.8
2019-01-10T08:16:41.614Z,67.9
2019-01-10T08:21:38.410Z,66.8
2019-01-10T08:26:35.086Z,67
2019-01-10T08:31:32.018Z,66.2
2019-01-10T08:36:32.520Z,67.1
2019-01-10T08:41:25.891Z,66.4
2019-01-10T08:46:22.932Z,66.4
2019-01-10T08:51:20.340Z,66.9
2019-01-10T08:56:17.154Z,66.2
2019-01-10T09:01:13.915Z,66.1
2019-01-10T09:06:10.468Z,66.1
2019-01-10T09:11:07.459Z,66.1
2019-01-10T09:16:04.240Z,65.8
2019-01-10T09:21:04.320Z,66
2019-01-10T09:25:57.801Z,65.9
2019-01-10T09:30:54.708Z,65.2
2019-01-10T09:35:51.774Z,65.5
2019-01-10T09:40:48.313Z,66
2019-01-10T09:45:44.875Z,65.4
2019-01-10T09:50:41.658Z,64.8
2019-01-10T09:55:38.317Z,65.4
2019-01-10T10:00:35.014Z,65
2019-01-10T10:05:31.902Z,65
2019-01-10T10:10:28.823Z,65.3
2019-01-10T10:15:25.538Z,65.5
2019-01-10T10:20:22.558Z,65.5
2019-01-10T10:25:18.935Z,65.7
2019-01-10T10:30:15.792Z,66.3
2019-01-10T10:35:12.514Z,66.1
2019-01-10T10:40:09.343Z,65.8
2019-01-10T10:45:06.279Z,66.2
2019-01-10T10:50:02.965Z,67.1
2019-01-10T10:55:00.460Z,67.4
2019-01-10T10:59:57.091Z,68.2
2019-01-10T11:04:53.242Z,67.9
2019-01-10T11:09:50.014Z,67.9
2019-01-10T11:14:48.340Z,67.5
2019-01-10T11:19:43.530Z,67.9
2019-01-10T11:24:40.084Z,67.5
2019-01-10T11:29:36.813Z,67.4
2019-01-10T11:34:33.629Z,67.7
2019-01-10T11:39:30.515Z,67.2
2019-01-10T11:44:27.329Z,67.2
2019-01-10T11:49:23.918Z,66.9
2019-01-10T11:54:21.027Z,66.5
2019-01-10T11:59:17.760Z,66.8
2019-01-10T12:04:14.607Z,66.7
2019-01-10T12:09:11.624Z,66.9
2019-01-10T12:14:08.503Z,66.8
2019-01-10T12:19:05.931Z,68.3
2019-01-10T12:24:02.545Z,67.5
2019-01-10T12:28:59.305Z,66.7
2019-01-10T12:33:55.998Z,67.1
2019-01-10T12:38:52.702Z,66.7
2019-01-10T12:43:49.426Z,66.7
2019-01-10T12:48:46.295Z,67.4
2019-01-10T12:53:43.076Z,67
2019-01-10T12:58:39.957Z,67.7
2019-01-10T13:03:36.776Z,67.3
2019-01-10T13:08:33.350Z,67.3
2019-01-10T13:13:29.900Z,67.3
2019-01-10T13:18:27.166Z,67
2019-01-10T13:23:23.716Z,67.3
2019-01-10T13:28:20.615Z,67.3
2019-01-10T13:33:17.427Z,67.6
2019-01-10T13:38:14.100Z,67.8
2019-01-10T13:43:11.243Z,67.4
2019-01-10T13:48:07.871Z,67.6
2019-01-10T13:53:04.431Z,67
2019-01-10T13:58:01.203Z,67
2019-01-10T14:02:57.759Z,67.2
2019-01-10T14:07:54.523Z,67.3
2019-01-10T14:12:51.279Z,66.8
2019-01-10T14:17:48.038Z,66.7
2019-01-10T14:22:44.966Z,66.2
2019-01-10T14:27:41.721Z,66.3
2019-01-10T14:32:37.798Z,66.2
2019-01-10T14:37:34.551Z,66.4
2019-01-10T14:42:31.524Z,66.8
2019-01-10T14:47:28.261Z,67
2019-01-10T14:52:25.110Z,66.7
2019-01-10T14:57:21.988Z,66.9
2019-01-10T15:02:19.292Z,66.8
2019-01-10T15:07:16.053Z,67.3
2019-01-10T15:12:12.699Z,67.9
2019-01-10T15:17:13.757Z,67.7
2019-01-10T15:22:06.111Z,67.6
2019-01-10T15:27:02.988Z,67.5
2019-01-10T15:31:59.658Z,67.6
2019-01-10T15:36:56.076Z,67.8
2019-01-10T15:41:52.716Z,67.9
2019-01-10T15:46:49.439Z,67.4
2019-01-10T15:51:46.950Z,67.3
2019-01-10T15:56:43.445Z,67.4
2019-01-10T16:01:39.965Z,66.9
2019-01-10T16:06:36.676Z,66.5
2019-01-10T16:11:32.762Z,66.5
2019-01-10T16:16:29.553Z,66.4
2019-01-10T16:21:25.623Z,66.7
2019-01-10T16:26:22.326Z,66.7
2019-01-10T16:31:19.109Z,66.8
2019-01-10T16:36:15.682Z,66.9
2019-01-10T16:41:11.997Z,66.8
2019-01-10T16:46:08.607Z,66.9
2019-01-10T16:51:05.053Z,67.1
2019-01-10T16:56:01.895Z,67
2019-01-10T17:00:58.237Z,67.3
2019-01-10T17:05:55.532Z,67.5
2019-01-10T17:10:52.118Z,67.1
2019-01-10T17:15:48.982Z,67.3
2019-01-10T17:20:45.381Z,67.5
2019-01-10T17:25:41.940Z,67.6
2019-01-10T17:30:38.785Z,67.1
2019-01-10T17:35:35.828Z,67.2
2019-01-10T17:40:32.724Z,67.2
2019-01-10T17:45:29.371Z,68
2019-01-10T17:50:25.989Z,68.2
2019-01-10T17:55:23.074Z,69
2019-01-10T18:00:19.678Z,69.6
2019-01-10T18:05:16.453Z,70
2019-01-10T18:10:13.053Z,70.7
2019-01-10T18:15:10.572Z,70.5
2019-01-10T18:20:07.244Z,70.3
2019-01-10T18:25:03.975Z,69.8
2019-01-10T18:30:00.542Z,69.6
2019-01-10T18:34:57.237Z,69.2
2019-01-10T18:39:53.677Z,69.7
2019-01-10T18:44:50.596Z,69.8
2019-01-10T18:49:46.919Z,69.5
2019-01-10T18:54:43.861Z,69.7
2019-01-10T18:59:40.627Z,69.2
2019-01-10T19:04:37.407Z,68.7
2019-01-10T19:09:34.254Z,68.6
2019-01-10T19:14:31.121Z,68.7
2019-01-10T19:19:27.616Z,68.9
2019-01-10T19:24:24.269Z,68.7
2019-01-10T19:29:20.362Z,68.3
2019-01-10T19:34:16.910Z,68.3
2019-01-10T19:39:13.687Z,67.5
2019-01-10T19:44:10.345Z,67.2
2019-01-10T19:49:07.126Z,67.9
2019-01-10T19:54:04.170Z,67.8
2019-01-10T19:59:00.697Z,68.1
2019-01-10T20:03:57.754Z,67.7
2019-01-10T20:08:54.429Z,67.6
2019-01-10T20:13:50.182Z,67.5
2019-01-10T20:18:46.642Z,67.4
2019-01-10T20:23:44.775Z,67.4
2019-01-10T20:28:41.258Z,67.6
2019-01-10T20:33:37.591Z,67.6
2019-01-10T20:38:34.105Z,68.7
2019-01-10T20:43:30.805Z,68.6
2019-01-10T20:48:28.068Z,67.7
2019-01-10T20:53:24.965Z,67.5
2019-01-10T20:58:20.733Z,68.1
2019-01-10T21:03:17.459Z,67.8
2019-01-10T21:08:13.412Z,68.1
2019-01-10T21:13:09.966Z,67.9
2019-01-10T21:18:06.345Z,68
2019-01-10T21:23:03.127Z,68
2019-01-10T21:28:00.126Z,68.3
2019-01-10T21:32:56.896Z,68.1
2019-01-10T21:37:53.710Z,68.4
2019-01-10T21:42:50.363Z,69
2019-01-10T21:47:46.826Z,70.1
2019-01-10T21:52:43.660Z,70.2
2019-01-10T21:57:40.117Z,69.3
2019-01-10T22:02:36.173Z,69.2
2019-01-10T22:07:32.872Z,68.3
2019-01-10T22:12:29.903Z,66.8
2019-01-10T22:17:26.478Z,66.6
2019-01-10T22:22:22.966Z,65.7
2019-01-10T22:27:19.592Z,66
2019-01-10T22:32:16.389Z,65.3
2019-01-10T22:37:13.030Z,65.1
2019-01-10T22:42:09.734Z,65
2019-01-10T22:47:06.711Z,65.1
2019-01-10T22:52:03.597Z,64.4
2019-01-10T22:57:00.432Z,64.2
2019-01-10T23:01:57.151Z,64.9
2019-01-10T23:06:53.922Z,64.5
2019-01-10T23:11:50.851Z,64.9
2019-01-10T23:16:47.437Z,65
2019-01-10T23:21:44.399Z,64.3
2019-01-10T23:26:41.012Z,64.2
2019-01-10T23:31:37.814Z,64.8
2019-01-10T23:36:34.830Z,64.1
2019-01-10T23:41:31.715Z,66
2019-01-10T23:46:28.773Z,65.5
2019-01-10T23:51:25.350Z,65
2019-01-10T23:56:21.921Z,64.6
